createdAt,value
2022-10-25T00:01:32.393Z,9.17
2022-10-25T00:04:00.581Z,9.47
2022-10-25T00:06:33.010Z,9.33
2022-10-25T00:09:04.810Z,8.90
2022-10-25T00:11:38.492Z,10.30
2022-10-25T00:14:08.087Z,9.87
2022-10-25T00:16:40.180Z,8.67
2022-10-25T00:19:08.988Z,10.30
2022-10-25T00:21:37.300Z,9.50
2022-10-25T00:24:06.755Z,9.53
2022-10-25T00:26:40.704Z,10.63
2022-10-25T00:29:09.098Z,9.50
2022-10-25T00:31:39.373Z,9.47
2022-10-25T00:34:08.045Z,8.47
2022-10-25T00:36:38.440Z,8.50
2022-10-25T00:39:06.985Z,7.37
2022-10-25T00:41:37.889Z,7.77
2022-10-25T00:44:43.106Z,6.60
2022-10-25T00:47:17.067Z,7.00
2022-10-25T00:49:45.574Z,5.63
2022-10-25T00:52:15.175Z,4.60
2022-10-25T00:54:46.926Z,4.97
2022-10-25T00:57:17.700Z,4.40
2022-10-25T00:59:48.534Z,4.97
2022-10-25T01:02:19.270Z,3.70
2022-10-25T01:04:47.591Z,2.73
2022-10-25T01:07:15.997Z,3.23
2022-10-25T01:09:44.327Z,2.90
2022-10-25T01:12:13.005Z,3.87
2022-10-25T01:14:44.159Z,4.03
2022-10-25T01:17:15.897Z,3.20
2022-10-25T01:20:05.601Z,3.40
2022-10-25T01:22:41.532Z,3.37
2022-10-25T01:25:45.027Z,2.83
2022-10-25T01:28:17.909Z,2.67
2022-10-25T01:31:13.660Z,1.93
2022-10-25T01:33:47.763Z,2.40
2022-10-25T01:36:21.014Z,2.67
2022-10-25T01:38:52.436Z,2.40
2022-10-25T01:41:28.739Z,2.13
2022-10-25T01:44:09.724Z,2.67
2022-10-25T01:46:45.650Z,2.70
2022-10-25T01:49:19.547Z,2.63
2022-10-25T01:51:47.615Z,3.00
2022-10-25T01:54:25.581Z,2.80
2022-10-25T01:57:04.999Z,2.90
2022-10-25T01:59:43.401Z,2.80
2022-10-25T02:02:21.043Z,3.47
2022-10-25T02:04:52.961Z,3.23
2022-10-25T02:07:26.473Z,2.80
2022-10-25T02:12:50.385Z,2.40
2022-10-25T02:15:22.566Z,2.80
2022-10-25T02:17:55.769Z,2.30
2022-10-25T02:20:24.791Z,2.57
2022-10-25T02:22:54.374Z,3.40
2022-10-25T02:25:26.210Z,3.00
2022-10-25T02:27:56.509Z,2.20
2022-10-25T02:30:25.218Z,2.00
2022-10-25T02:32:58.567Z,2.20
2022-10-25T02:35:27.122Z,1.67
2022-10-25T02:37:56.517Z,2.17
2022-10-25T02:40:25.266Z,1.73
2022-10-25T02:42:55.643Z,1.90
2022-10-25T02:45:24.327Z,1.40
2022-10-25T02:47:53.399Z,1.50
2022-10-25T02:50:25.403Z,1.30
2022-10-25T02:52:54.125Z,1.87
2022-10-25T02:55:23.284Z,1.37
2022-10-25T02:57:52.119Z,1.40
2022-10-25T03:00:20.297Z,1.30
2022-10-25T03:02:50.436Z,1.67
2022-10-25T03:05:18.493Z,1.50
2022-10-25T03:07:48.755Z,2.00
2022-10-25T03:10:16.890Z,1.40
2022-10-25T03:12:45.512Z,1.50
2022-10-25T03:15:13.951Z,1.00
2022-10-25T03:17:42.180Z,1.10
2022-10-25T03:20:12.252Z,1.20
2022-10-25T03:22:41.183Z,1.10
2022-10-25T03:25:12.052Z,1.37
2022-10-25T03:27:42.843Z,1.30
2022-10-25T03:30:14.057Z,1.20
2022-10-25T03:32:42.212Z,1.37
2022-10-25T03:35:10.703Z,1.20
2022-10-25T03:37:39.227Z,1.50
2022-10-25T03:40:11.795Z,1.00
2022-10-25T03:42:40.196Z,1.63
2022-10-25T03:45:08.606Z,1.20
2022-10-25T03:47:41.097Z,1.13
2022-10-25T03:50:12.716Z,1.33
2022-10-25T03:52:44.781Z,1.30
2022-10-25T03:55:15.922Z,1.63
2022-10-25T03:57:44.564Z,1.40
2022-10-25T04:00:14.013Z,1.20
2022-10-25T04:02:42.300Z,1.40
2022-10-25T04:05:11.846Z,1.43
2022-10-25T04:07:42.167Z,1.47
2022-10-25T04:10:10.745Z,1.70
2022-10-25T04:12:40.683Z,1.30
2022-10-25T04:15:10.345Z,1.20
2022-10-25T04:17:38.378Z,1.40
2022-10-25T04:20:08.927Z,1.47
2022-10-25T04:22:40.382Z,1.30
2022-10-25T04:25:09.526Z,1.20
2022-10-25T04:27:40.642Z,1.60
2022-10-25T04:30:09.671Z,1.53
2022-10-25T04:32:38.273Z,1.60
2022-10-25T04:35:08.734Z,1.47
2022-10-25T04:37:39.198Z,1.20
2022-10-25T04:40:10.925Z,1.10
2022-10-25T04:42:40.626Z,1.50
2022-10-25T04:45:12.749Z,1.30
2022-10-25T04:47:41.269Z,1.10
2022-10-25T04:50:10.025Z,1.33
2022-10-25T04:52:38.303Z,1.03
2022-10-25T04:55:06.783Z,1.27
2022-10-25T04:57:35.767Z,1.10
2022-10-25T05:00:06.191Z,0.97
2022-10-25T05:02:37.589Z,1.10
2022-10-25T05:05:08.784Z,1.10
2022-10-25T05:07:38.953Z,1.40
2022-10-25T05:10:07.709Z,0.83
2022-10-25T05:12:35.793Z,1.50
2022-10-25T05:15:06.001Z,1.33
2022-10-25T05:17:37.274Z,1.10
2022-10-25T05:20:06.550Z,1.20
2022-10-25T05:22:39.108Z,1.20
2022-10-25T05:25:11.490Z,1.20
2022-10-25T05:27:40.296Z,1.50
2022-10-25T05:30:12.136Z,1.37
2022-10-25T05:32:40.451Z,1.30
2022-10-25T05:35:09.828Z,1.00
2022-10-25T05:37:39.945Z,1.63
2022-10-25T05:40:12.513Z,2.07
2022-10-25T05:42:41.902Z,1.40
2022-10-25T05:45:12.882Z,1.73
2022-10-25T05:47:41.494Z,1.60
2022-10-25T05:50:13.227Z,1.83
2022-10-25T05:52:43.291Z,1.37
2022-10-25T05:55:11.413Z,1.30
2022-10-25T05:57:40.382Z,1.50
2022-10-25T06:00:10.329Z,1.70
2022-10-25T06:02:39.712Z,1.70
2022-10-25T06:05:09.532Z,1.77
2022-10-25T06:07:38.407Z,1.43
2022-10-25T06:10:10.628Z,1.40
2022-10-25T06:12:39.376Z,1.53
2022-10-25T06:15:09.158Z,1.33
2022-10-25T06:17:38.865Z,1.43
2022-10-25T06:20:09.357Z,1.30
2022-10-25T06:22:37.421Z,1.47
2022-10-25T06:25:08.601Z,1.20
2022-10-25T06:27:38.873Z,1.50
2022-10-25T06:30:08.467Z,2.37
2022-10-25T06:32:39.110Z,1.57
2022-10-25T06:35:09.504Z,1.77
2022-10-25T06:37:38.417Z,1.43
2022-10-25T06:40:09.273Z,1.40
2022-10-25T06:42:37.662Z,2.10
2022-10-25T06:45:06.785Z,1.73
2022-10-25T06:47:37.660Z,1.23
2022-10-25T06:50:09.793Z,1.30
2022-10-25T06:52:41.087Z,1.53
2022-10-25T06:55:09.548Z,1.70
2022-10-25T06:57:38.801Z,1.47
2022-10-25T07:00:09.052Z,1.63
2022-10-25T07:02:37.380Z,1.37
2022-10-25T07:05:07.168Z,1.50
2022-10-25T07:07:43.572Z,1.00
2022-10-25T07:10:11.663Z,1.33
2022-10-25T07:12:41.016Z,1.00
2022-10-25T07:15:10.459Z,2.10
2022-10-25T07:17:39.816Z,1.40
2022-10-25T07:20:10.492Z,0.90
2022-10-25T07:22:41.130Z,1.13
2022-10-25T07:25:10.306Z,1.20
2022-10-25T07:27:42.114Z,1.33
2022-10-25T07:30:11.555Z,1.03
2022-10-25T07:32:42.459Z,0.93
2022-10-25T07:35:10.935Z,1.13
2022-10-25T07:37:42.962Z,1.43
2022-10-25T07:40:12.269Z,0.90
2022-10-25T07:42:42.506Z,1.50
2022-10-25T07:45:10.765Z,1.07
2022-10-25T07:47:39.962Z,0.80
2022-10-25T07:50:08.981Z,1.00
2022-10-25T07:52:39.194Z,0.90
2022-10-25T07:55:12.001Z,0.90
2022-10-25T07:57:42.706Z,1.00
2022-10-25T08:00:14.778Z,1.00
2022-10-25T08:02:43.936Z,0.70
2022-10-25T08:05:12.664Z,0.90
2022-10-25T08:07:41.907Z,0.83
2022-10-25T08:10:13.775Z,0.73
2022-10-25T08:12:42.593Z,0.80
2022-10-25T08:15:11.585Z,0.80
2022-10-25T08:17:40.576Z,0.97
2022-10-25T08:20:10.411Z,0.90
2022-10-25T08:22:40.868Z,1.10
2022-10-25T08:25:11.785Z,1.03
2022-10-25T08:27:43.388Z,1.10
2022-10-25T08:30:14.629Z,1.07
2022-10-25T08:32:43.646Z,1.50
2022-10-25T08:35:11.681Z,1.00
2022-10-25T08:37:40.589Z,1.10
2022-10-25T08:40:19.951Z,0.83
2022-10-25T08:43:01.754Z,1.03
2022-10-25T08:45:36.974Z,0.97
2022-10-25T08:48:12.768Z,1.30
2022-10-25T08:50:43.825Z,1.10
2022-10-25T08:53:18.022Z,0.90
2022-10-25T08:56:11.666Z,1.00
2022-10-25T08:58:47.410Z,0.90
2022-10-25T09:01:19.892Z,1.30
2022-10-25T09:03:51.176Z,0.80
2022-10-25T09:06:26.357Z,1.37
2022-10-25T09:09:04.327Z,0.80
2022-10-25T09:11:47.726Z,0.90
2022-10-25T09:14:22.718Z,1.20
2022-10-25T09:16:54.094Z,0.97
2022-10-25T09:19:29.109Z,1.23
2022-10-25T09:22:03.566Z,1.00
2022-10-25T09:24:36.506Z,0.93
2022-10-25T09:27:16.038Z,1.70
2022-10-25T09:29:47.733Z,0.90
2022-10-25T09:32:22.609Z,0.90
2022-10-25T09:34:53.102Z,1.23
2022-10-25T09:37:27.536Z,1.33
2022-10-25T09:39:57.476Z,0.80
2022-10-25T09:42:34.219Z,1.10
2022-10-25T09:45:04.473Z,0.97
2022-10-25T09:47:38.936Z,1.10
2022-10-25T09:50:13.145Z,1.70
2022-10-25T09:52:44.211Z,1.30
2022-10-25T09:55:33.991Z,1.13
2022-10-25T09:58:06.719Z,1.03
2022-10-25T10:00:38.618Z,1.10
2022-10-25T10:03:11.561Z,0.77
2022-10-25T10:05:42.163Z,0.97
2022-10-25T10:08:10.619Z,1.27
2022-10-25T10:10:40.809Z,1.10
2022-10-25T10:13:18.805Z,1.43
2022-10-25T10:15:54.215Z,1.17
2022-10-25T10:18:47.596Z,0.90
2022-10-25T10:21:18.435Z,1.10
2022-10-25T10:23:51.920Z,1.10
2022-10-25T10:26:34.593Z,1.10
2022-10-25T10:29:15.406Z,1.00
2022-10-25T10:31:49.223Z,1.07
2022-10-25T10:34:26.552Z,1.37
2022-10-25T10:37:08.637Z,1.13
2022-10-25T10:39:36.845Z,1.30
2022-10-25T10:42:16.437Z,0.90
2022-10-25T10:45:02.148Z,1.00
2022-10-25T10:47:37.962Z,0.90
2022-10-25T10:50:13.299Z,1.10
2022-10-25T10:52:44.121Z,0.90
2022-10-25T10:55:29.144Z,1.00
2022-10-25T10:58:04.715Z,1.10
2022-10-25T11:00:35.266Z,1.10
2022-10-25T11:03:03.869Z,1.30
2022-10-25T11:05:35.274Z,0.90
2022-10-25T11:08:23.132Z,0.63
2022-10-25T11:10:51.363Z,0.80
2022-10-25T11:13:20.714Z,0.73
2022-10-25T11:16:17.866Z,0.90
2022-10-25T11:18:52.304Z,0.67
2022-10-25T11:21:33.355Z,1.20
2022-10-25T11:24:25.849Z,1.17
2022-10-25T11:26:59.562Z,0.80
2022-10-25T11:29:47.258Z,0.93
2022-10-25T11:35:10.687Z,1.00
2022-10-25T11:37:43.841Z,1.17
2022-10-25T11:40:16.703Z,0.97
2022-10-25T11:43:00.654Z,1.20
2022-10-25T11:45:37.418Z,1.10
2022-10-25T11:48:26.273Z,0.90
2022-10-25T11:51:00.264Z,0.70
2022-10-25T11:53:41.182Z,0.80
2022-10-25T11:56:19.855Z,1.47
2022-10-25T11:58:54.044Z,1.30
2022-10-25T12:01:36.424Z,0.90
2022-10-25T12:04:37.962Z,0.90
2022-10-25T12:07:12.943Z,0.77
2022-10-25T12:09:48.017Z,0.70
2022-10-25T12:12:20.819Z,1.07
2022-10-25T12:14:51.602Z,0.90
2022-10-25T12:17:24.977Z,1.10
2022-10-25T12:20:01.975Z,0.77
2022-10-25T12:22:37.938Z,1.10
2022-10-25T12:25:09.435Z,0.90
2022-10-25T12:27:37.934Z,1.10
2022-10-25T12:30:14.368Z,1.10
2022-10-25T12:32:45.382Z,0.87
2022-10-25T12:35:23.995Z,0.93
2022-10-25T12:37:57.962Z,0.90
2022-10-25T12:40:29.713Z,0.87
2022-10-25T12:43:02.631Z,0.97
2022-10-25T12:45:54.683Z,1.10
2022-10-25T12:48:55.178Z,1.30
2022-10-25T12:51:39.454Z,1.73
2022-10-25T12:54:20.750Z,1.27
2022-10-25T12:56:58.131Z,1.03
2022-10-25T12:59:39.274Z,0.77
2022-10-25T13:02:24.302Z,1.07
2022-10-25T13:05:25.147Z,1.10
2022-10-25T13:07:56.332Z,1.27
2022-10-25T13:13:03.181Z,0.90
2022-10-25T13:15:42.165Z,1.03
2022-10-25T13:18:27.212Z,1.07
2022-10-25T13:20:56.303Z,1.30
2022-10-25T13:24:00.664Z,1.33
2022-10-25T13:26:32.236Z,1.30
2022-10-25T13:29:05.797Z,1.27
2022-10-25T13:32:10.157Z,1.00
2022-10-25T13:34:41.037Z,1.07
2022-10-25T13:37:42.269Z,0.93
2022-10-25T13:40:26.221Z,1.67
2022-10-25T13:43:06.656Z,1.30
2022-10-25T13:45:41.984Z,1.20
2022-10-25T13:48:19.322Z,0.80
2022-10-25T13:50:55.542Z,1.00
2022-10-25T13:53:26.088Z,0.93
2022-10-25T13:56:04.398Z,1.20
2022-10-25T13:58:48.531Z,1.10
2022-10-25T14:01:55.847Z,1.60
2022-10-25T14:04:35.688Z,1.00
2022-10-25T14:07:41.584Z,1.00
2022-10-25T14:10:15.321Z,1.10
2022-10-25T14:12:49.569Z,1.10
2022-10-25T14:15:26.117Z,1.30
2022-10-25T14:17:55.834Z,1.10
2022-10-25T14:20:26.933Z,0.73
2022-10-25T14:23:00.374Z,1.93
2022-10-25T14:25:34.896Z,1.10
2022-10-25T14:28:16.551Z,1.47
2022-10-25T14:30:45.738Z,1.00
2022-10-25T14:33:36.645Z,1.07
2022-10-25T14:36:27.965Z,1.30
2022-10-25T14:38:59.880Z,1.23
2022-10-25T14:41:29.590Z,1.10
2022-10-25T14:44:02.404Z,1.10
2022-10-25T14:46:31.325Z,1.47
2022-10-25T14:49:02.084Z,1.43
2022-10-25T14:51:33.025Z,1.37
2022-10-25T14:54:06.829Z,1.07
2022-10-25T14:56:37.478Z,1.40
2022-10-25T14:59:18.197Z,1.23
2022-10-25T15:01:53.355Z,1.10
2022-10-25T15:04:27.412Z,1.10
2022-10-25T15:06:55.528Z,1.10
2022-10-25T15:12:18.359Z,1.40
2022-10-25T15:14:50.880Z,1.00
2022-10-25T15:17:25.766Z,1.20
2022-10-25T15:20:06.899Z,1.53
2022-10-25T15:22:43.758Z,1.33
2022-10-25T15:25:22.397Z,1.17
2022-10-25T15:27:54.629Z,1.53
2022-10-25T15:30:45.031Z,1.77
2022-10-25T15:33:15.585Z,1.10
2022-10-25T15:35:49.747Z,1.30
2022-10-25T15:38:18.555Z,1.23
2022-10-25T15:40:49.629Z,1.70
2022-10-25T15:43:17.669Z,1.30
2022-10-25T15:45:48.754Z,1.37
2022-10-25T15:48:18.281Z,1.00
2022-10-25T15:50:49.592Z,1.03
2022-10-25T15:53:17.854Z,1.10
2022-10-25T15:55:46.032Z,1.37
2022-10-25T15:58:15.244Z,1.37
2022-10-25T16:00:48.098Z,1.40
2022-10-25T16:03:21.570Z,1.27
2022-10-25T16:05:50.774Z,1.50
2022-10-25T16:08:19.460Z,2.13
2022-10-25T16:10:47.849Z,1.50
2022-10-25T16:13:19.000Z,2.67
2022-10-25T16:15:49.201Z,1.60
2022-10-25T16:18:20.363Z,1.63
2022-10-25T16:20:50.663Z,1.60
2022-10-25T16:23:26.146Z,1.30
2022-10-25T16:25:56.168Z,1.40
2022-10-25T16:28:26.796Z,1.60
2022-10-25T16:30:55.308Z,1.80
2022-10-25T16:33:25.924Z,1.77
2022-10-25T16:35:57.661Z,2.23
2022-10-25T16:38:26.469Z,1.47
2022-10-25T16:40:55.294Z,1.70
2022-10-25T16:43:23.574Z,2.00
2022-10-25T16:45:51.735Z,1.80
2022-10-25T16:48:23.369Z,1.37
2022-10-25T16:50:54.635Z,1.90
2022-10-25T16:53:26.439Z,2.30
2022-10-25T16:56:08.651Z,1.63
2022-10-25T16:58:39.413Z,2.40
2022-10-25T17:01:18.639Z,2.00
2022-10-25T17:03:49.966Z,2.10
2022-10-25T17:06:40.338Z,2.73
2022-10-25T17:09:25.185Z,2.00
2022-10-25T17:11:53.856Z,2.47
2022-10-25T17:14:23.091Z,2.70
2022-10-25T17:16:53.125Z,2.10
2022-10-25T17:19:24.505Z,2.27
2022-10-25T17:21:54.380Z,2.40
2022-10-25T17:24:25.754Z,2.63
2022-10-25T17:26:54.613Z,2.43
2022-10-25T17:29:23.892Z,2.90
2022-10-25T17:32:08.932Z,3.40
2022-10-25T17:34:41.012Z,3.27
2022-10-25T17:37:10.316Z,3.87
2022-10-25T17:39:46.745Z,3.47
2022-10-25T17:42:16.377Z,3.80
2022-10-25T17:44:46.185Z,3.40
2022-10-25T17:47:19.211Z,3.13
2022-10-25T17:49:48.573Z,3.80
2022-10-25T17:52:17.037Z,3.90
2022-10-25T17:54:50.572Z,3.97
2022-10-25T17:57:21.366Z,3.50
2022-10-25T17:59:53.840Z,3.30
2022-10-25T18:02:23.298Z,3.03
2022-10-25T18:05:18.804Z,3.30
2022-10-25T18:07:45.760Z,3.60
2022-10-25T18:10:19.036Z,3.70
2022-10-25T18:12:48.612Z,4.30
2022-10-25T18:15:19.974Z,4.20
2022-10-25T18:17:49.630Z,4.60
2022-10-25T18:20:22.293Z,3.97
2022-10-25T18:22:54.657Z,3.90
2022-10-25T18:25:37.429Z,3.40
2022-10-25T18:28:07.989Z,3.80
2022-10-25T18:30:43.069Z,3.60
2022-10-25T18:33:18.528Z,3.17
2022-10-25T18:35:53.253Z,3.60
2022-10-25T18:38:22.575Z,3.90
2022-10-25T18:40:53.876Z,4.10
2022-10-25T18:43:24.597Z,3.13
2022-10-25T18:45:58.617Z,3.10
2022-10-25T18:48:29.417Z,4.17
2022-10-25T18:50:59.913Z,3.63
2022-10-25T18:53:29.914Z,4.23
2022-10-25T18:56:03.226Z,4.40
2022-10-25T18:58:38.185Z,4.30
2022-10-25T19:01:13.851Z,3.73
2022-10-25T19:03:47.005Z,3.40
2022-10-25T19:06:19.757Z,4.20
2022-10-25T19:08:50.679Z,3.87
2022-10-25T19:11:24.773Z,3.60
2022-10-25T19:14:07.945Z,3.57
2022-10-25T19:16:42.024Z,3.03
2022-10-25T19:19:13.695Z,3.90
2022-10-25T19:21:44.844Z,3.90
2022-10-25T19:24:18.990Z,3.40
2022-10-25T19:26:59.626Z,2.93
2022-10-25T19:29:29.890Z,3.43
2022-10-25T19:32:01.505Z,3.30
2022-10-25T19:34:31.182Z,2.80
2022-10-25T19:37:05.020Z,3.27
2022-10-25T19:39:39.035Z,3.20
2022-10-25T19:42:16.992Z,3.20
2022-10-25T19:44:47.798Z,2.90
2022-10-25T19:47:20.433Z,3.13
2022-10-25T19:49:49.912Z,3.40
2022-10-25T19:52:23.140Z,2.83
2022-10-25T19:54:55.028Z,3.10
2022-10-25T19:57:31.948Z,3.17
2022-10-25T20:00:03.218Z,3.03
2022-10-25T20:02:44.510Z,3.67
2022-10-25T20:05:20.582Z,3.60
2022-10-25T20:07:51.691Z,3.40
2022-10-25T20:10:26.520Z,4.10
2022-10-25T20:13:04.907Z,3.53
2022-10-25T20:15:36.941Z,4.53
2022-10-25T20:18:08.751Z,3.80
2022-10-25T20:20:39.331Z,3.80
2022-10-25T20:23:09.719Z,4.67
2022-10-25T20:25:43.751Z,4.50
2022-10-25T20:28:21.615Z,4.80
2022-10-25T20:30:53.531Z,4.50
2022-10-25T20:33:23.831Z,5.17
2022-10-25T20:35:54.894Z,5.00
2022-10-25T20:38:26.162Z,5.63
2022-10-25T20:40:56.988Z,5.63
2022-10-25T20:43:39.047Z,4.80
2022-10-25T20:46:13.304Z,5.53
2022-10-25T20:48:53.592Z,5.30
2022-10-25T20:51:34.771Z,5.60
2022-10-25T20:54:09.467Z,5.37
2022-10-25T20:56:40.117Z,5.87
2022-10-25T20:59:22.049Z,5.43
2022-10-25T21:01:52.405Z,4.60
2022-10-25T21:04:42.366Z,4.97
2022-10-25T21:07:17.627Z,5.03
2022-10-25T21:09:52.308Z,4.83
2022-10-25T21:12:25.627Z,5.50
2022-10-25T21:14:55.316Z,4.70
2022-10-25T21:17:23.672Z,5.00
2022-10-25T21:19:54.067Z,4.50
2022-10-25T21:22:22.652Z,4.30
2022-10-25T21:24:51.902Z,4.77
2022-10-25T21:27:22.640Z,3.87
2022-10-25T21:29:51.671Z,3.20
2022-10-25T21:32:21.672Z,3.40
2022-10-25T21:34:52.855Z,3.70
2022-10-25T21:37:22.293Z,3.47
2022-10-25T21:39:51.736Z,3.27
2022-10-25T21:42:21.745Z,3.27
2022-10-25T21:44:49.956Z,3.43
2022-10-25T21:47:23.898Z,4.00
2022-10-25T21:49:57.370Z,3.30
2022-10-25T21:52:26.734Z,3.60
2022-10-25T21:54:58.197Z,3.83
2022-10-25T21:57:27.794Z,3.57
2022-10-25T21:59:59.821Z,3.90
2022-10-25T22:02:34.673Z,4.10
2022-10-25T22:05:08.149Z,3.87
2022-10-25T22:07:38.876Z,5.20
2022-10-25T22:10:10.401Z,4.80
2022-10-25T22:12:47.614Z,4.63
2022-10-25T22:15:16.914Z,5.30
2022-10-25T22:17:47.699Z,4.30
2022-10-25T22:20:19.889Z,5.07
2022-10-25T22:22:49.853Z,4.90
2022-10-25T22:25:18.357Z,5.70
2022-10-25T22:27:52.532Z,5.50
2022-10-25T22:30:20.771Z,5.00
2022-10-25T22:32:53.027Z,5.87
2022-10-25T22:35:21.771Z,5.10
2022-10-25T22:37:52.249Z,5.33
2022-10-25T22:40:20.486Z,5.77
2022-10-25T22:42:51.821Z,5.53
2022-10-25T22:45:20.152Z,5.63
2022-10-25T22:48:00.688Z,5.50
2022-10-25T22:50:31.928Z,5.83
2022-10-25T22:53:04.018Z,5.77
2022-10-25T22:55:35.187Z,6.10
2022-10-25T22:58:05.771Z,6.20
2022-10-25T23:00:37.146Z,5.60
2022-10-25T23:03:06.689Z,5.90
2022-10-25T23:05:38.325Z,5.97
2022-10-25T23:08:08.778Z,5.53
2022-10-25T23:10:39.459Z,5.47
2022-10-25T23:13:08.152Z,6.70
2022-10-25T23:15:39.940Z,6.33
2022-10-25T23:18:13.239Z,6.90
2022-10-25T23:20:55.576Z,6.37
2022-10-25T23:23:27.955Z,6.30
2022-10-25T23:26:01.140Z,6.80
2022-10-25T23:28:31.981Z,6.07
2022-10-25T23:31:06.295Z,6.80
2022-10-25T23:33:39.122Z,6.43
2022-10-25T23:36:10.240Z,6.40
2022-10-25T23:38:38.421Z,6.80
2022-10-25T23:41:07.301Z,6.30
2022-10-25T23:43:36.301Z,6.27
2022-10-25T23:46:06.157Z,6.90
2022-10-25T23:48:39.115Z,6.10
2022-10-25T23:51:10.543Z,6.90
2022-10-25T23:53:39.561Z,6.80
2022-10-25T23:56:11.294Z,6.40
2022-10-25T23:58:40.198Z,6.83
